Archerfield AIRPORT WEATHER FORECAST (YBAF)

METAR

METAR YBAF 210800Z AUTO 09007KT 9999 // NCD 15/05 Q1019 RMK RF00.0////./

TAF

TAF YBAF 210340Z 2106/2118 12007KT CAVOK FM211000 18006KT CAVOK RMK T 19 13 10 07 Q 1017 1019 1022 1022

QNH 

1019

Temperature & Dew Point

14° DP5